F/V Judine — FPMI — position and weather

sailwx.info

Track history (hours):
 
Tides and Currents Weather Stations Pressure Air Temp Water Temp Dewpoint Dewpoint Depression Visibility Wind Speed Wind Dir Waves Ship Positions

F/V Judine

Last reported at 2017-Nov-16 10:06 UTC. Time now 2017-Nov-23 05:43 UTC.
Position N 47°48' W 004°17'.

Length 22 m.

Type: Fishing. MMSI: 227577000.

Date/timePositionNaut miles runAvg speedWind from/ knotsBaromVisibWave heightAir tempDewpointWater temp
2017-Nov-16 10:06N 47°48' W 004°17'0 0.0
2017-Nov-16 03:45N 47°48' W 004°17'0 0.0
2017-Nov-16 03:29N 47°48' W 004°17'0 0.0
2017-Nov-16 02:52N 47°48' W 004°17'0 0.0
2017-Nov-16 01:34N 47°48' W 004°17'0 0.2
2017-Nov-16 01:12N 47°48' W 004°17'0 0.1
2017-Nov-16 00:44N 47°48' W 004°17'0 0.0
2017-Nov-16 00:30N 47°48' W 004°17'0 0.0
2017-Nov-15 23:57N 47°48' W 004°17'0 0.0
2017-Nov-15 23:30N 47°48' W 004°17'0 0.3
2017-Nov-15 23:00N 47°48' W 004°17'1 3.0
2017-Nov-15 22:30N 47°47' W 004°18'4 7.7
2017-Nov-15 21:57N 47°47' W 004°25'4 8.4
2017-Nov-15 21:30N 47°48' W 004°30'3 5.9
2017-Nov-15 21:00N 47°49' W 004°34'3 5.9
2017-Nov-15 20:30N 47°51' W 004°38'4 8.1
2017-Nov-15 20:00N 47°53' W 004°43'4 8.1
2017-Nov-15 19:30N 47°55' W 004°48'4 8.0
2017-Nov-15 19:00N 47°57' W 004°53'4 8.9
2017-Nov-15 18:30N 47°59' W 004°59'5 9.0
2017-Nov-15 17:58N 48°01' W 005°06'4 9.0
2017-Nov-15 17:30N 48°03' W 005°11'5 9.5
2017-Nov-15 16:59N 48°08' W 005°14'4 8.9
2017-Nov-15 16:30N 48°12' W 005°16'5 9.2
2017-Nov-15 15:56N 48°17' W 005°19'4 8.9
2017-Nov-15 15:28N 48°21' W 005°20'4 8.6
2017-Nov-15 15:00N 48°25' W 005°22'5 8.2
2017-Nov-15 14:23N 48°29' W 005°25'7 7.9
2017-Nov-15 13:31N 48°36' W 005°28'6 7.6
2017-Nov-15 12:47N 48°41' W 005°31'1 1.2
2017-Nov-15 11:57N 48°42' W 005°32'1 2.6
2017-Nov-15 11:29N 48°40' W 005°32'2 2.6
2017-Nov-15 10:54N 48°39' W 005°33'1 2.6
2017-Nov-15 10:28N 48°38' W 005°33'2 2.5
2017-Nov-15 09:38N 48°36' W 005°33'1 2.5
2017-Nov-15 09:13N 48°35' W 005°33'0 2.0
2017-Nov-15 08:58N 48°34' W 005°34'1 1.9
2017-Nov-15 08:30N 48°34' W 005°34'1 1.0
2017-Nov-15 08:00N 48°34' W 005°34'2 4.3
2017-Nov-15 07:29N 48°32' W 005°36'11 1.7
2017-Nov-15 00:46N 48°42' W 005°28'3 4.5
2017-Nov-15 00:05N 48°41' W 005°32'2 0.9
2017-Nov-14 21:34N 48°41' W 005°29'5 2.4
2017-Nov-14 19:40N 48°39' W 005°34'3 2.7
2017-Nov-14 18:37N 48°40' W 005°30'1 1.1
2017-Nov-14 18:08N 48°40' W 005°30'0 1.1
2017-Nov-14 17:55N 48°40' W 005°30'1 0.9
2017-Nov-14 17:19N 48°41' W 005°29'0 0.8
2017-Nov-14 16:55N 48°41' W 005°29'8 8.2
2017-Nov-14 16:00N 48°46' W 005°20'1 2.1
2017-Nov-14 15:21N 48°45' W 005°22'1 2.4
2017-Nov-14 14:58N 48°44' W 005°23'2 2.5
2017-Nov-14 14:18N 48°43' W 005°25'1 2.6
2017-Nov-14 13:58N 48°43' W 005°26'1 2.5
2017-Nov-14 13:30N 48°42' W 005°28'1 2.6
2017-Nov-14 12:57N 48°41' W 005°29'2 2.7
2017-Nov-14 12:20N 48°40' W 005°31'2 5.0
2017-Nov-14 11:59N 48°42' W 005°33'1 2.5
2017-Nov-14 11:29N 48°41' W 005°34'2 2.6
2017-Nov-14 10:48N 48°39' W 005°34'1 2.8
2017-Nov-14 10:26N 48°38' W 005°34'1 2.6
2017-Nov-14 10:00N 48°37' W 005°34'2 2.5
2017-Nov-14 09:15N 48°35' W 005°35'1 2.4
2017-Nov-14 09:00N 48°34' W 005°35'2 2.4
2017-Nov-14 08:13N 48°32' W 005°35'21 4.0
2017-Nov-14 02:56N 48°49' W 005°15'2 1.4
2017-Nov-14 01:50N 48°50' W 005°13'0 0.2
2017-Nov-13 23:28N 48°50' W 005°12'4 2.2
2017-Nov-13 21:33N 48°49' W 005°06'16 0.8
2017-Nov-13 02:00N 48°43' W 005°28'1 3.0
2017-Nov-13 01:30N 48°44' W 005°29'1 1.4
2017-Nov-13 01:00N 48°44' W 005°29'2 2.7
2017-Nov-13 00:22N 48°42' W 005°29'1 2.6
2017-Nov-12 23:56N 48°41' W 005°29'1 1.8
2017-Nov-12 23:24N 48°40' W 005°29'1 1.5
2017-Nov-12 23:00N 48°39' W 005°29'1 1.7
2017-Nov-12 22:29N 48°38' W 005°30'1 2.6
2017-Nov-12 22:01N 48°37' W 005°31'3 3.4
2017-Nov-12 21:02N 48°35' W 005°34'1 3.3
2017-Nov-12 20:50N 48°34' W 005°34'7 2.8
2017-Nov-12 18:09N 48°42' W 005°35'3 2.2
2017-Nov-12 16:53N 48°43' W 005°32'1 2.4
2017-Nov-12 16:31N 48°44' W 005°31'3 2.4
2017-Nov-12 15:21N 48°45' W 005°27'1 2.5
2017-Nov-12 14:57N 48°46' W 005°26'3 1.7
2017-Nov-12 13:22N 48°43' W 005°28'4 8.4
2017-Nov-12 12:55N 48°41' W 005°32'9 5.4
2017-Nov-12 11:10N 48°46' W 005°20'4 4.9
2017-Nov-12 10:26N 48°48' W 005°15'2 2.2
2017-Nov-12 09:41N 48°47' W 005°17'1 2.4
2017-Nov-12 09:27N 48°46' W 005°18'1 2.3
2017-Nov-12 08:59N 48°46' W 005°19'1 2.3
2017-Nov-12 08:27N 48°45' W 005°20'1 2.4
2017-Nov-12 07:58N 48°44' W 005°22'1 2.4
2017-Nov-12 07:23N 48°44' W 005°24'1 2.4
2017-Nov-12 06:58N 48°43' W 005°25'1 2.3
2017-Nov-12 06:30N 48°42' W 005°26'2 3.6
2017-Nov-12 05:56N 48°42' W 005°29'0 0.5
2017-Nov-12 05:30N 48°42' W 005°29'1 2.3
2017-Nov-12 04:58N 48°42' W 005°28'1 2.2
2017-Nov-12 04:30N 48°42' W 005°26'1 2.1
2017-Nov-12 04:00N 48°42' W 005°24'1 1.2
2017-Nov-12 03:10N 48°42' W 005°26'0 1.2
2017-Nov-12 02:59N 48°42' W 005°26'1 1.8
2017-Nov-12 02:27N 48°41' W 005°24'1 2.0
2017-Nov-12 02:00N 48°41' W 005°23'0 0.4
2017-Nov-12 01:27N 48°41' W 005°23'1 2.8
2017-Nov-12 01:00N 48°42' W 005°24'1 2.1
2017-Nov-12 00:30N 48°41' W 005°23'1 2.3
2017-Nov-12 00:00N 48°41' W 005°22'1 2.3
2017-Nov-11 23:29N 48°40' W 005°21'1 1.6
2017-Nov-11 23:00N 48°39' W 005°20'2 4.3
2017-Nov-11 22:31N 48°40' W 005°22'1 1.9
2017-Nov-11 22:00N 48°41' W 005°24'1 1.9
2017-Nov-11 21:29N 48°40' W 005°24'1 2.1
2017-Nov-11 20:58N 48°39' W 005°24'1 2.2
2017-Nov-11 20:27N 48°37' W 005°24'3 5.6
2017-Nov-11 19:59N 48°36' W 005°27'3 5.4
2017-Nov-11 19:27N 48°34' W 005°30'3 5.2
2017-Nov-11 18:56N 48°33' W 005°34'9 4.6
2017-Nov-11 16:59N 48°42' W 005°34'1 2.3
2017-Nov-11 16:24N 48°40' W 005°35'0 0.9
2017-Nov-11 16:00N 48°41' W 005°35'1 2.3
2017-Nov-11 15:28N 48°41' W 005°34'1 2.4
2017-Nov-11 14:58N 48°42' W 005°32'2 2.4
2017-Nov-11 14:20N 48°43' W 005°30'2 2.3
2017-Nov-11 13:40N 48°44' W 005°28'1 2.4
2017-Nov-11 13:21N 48°44' W 005°27'2 2.4
2017-Nov-11 12:39N 48°45' W 005°25'1 2.3
2017-Nov-11 12:15N 48°46' W 005°24'0 1.0
2017-Nov-11 12:00N 48°46' W 005°24'4 0.9
2017-Nov-11 07:40N 48°48' W 005°19'0 2.4
2017-Nov-11 07:29N 48°47' W 005°19'1 2.3
2017-Nov-11 06:52N 48°46' W 005°21'1 2.5
2017-Nov-11 06:29N 48°46' W 005°22'1 2.5
2017-Nov-11 05:58N 48°45' W 005°24'1 2.4
2017-Nov-11 05:28N 48°44' W 005°25'1 2.1
2017-Nov-11 05:00N 48°44' W 005°27'2 2.9
2017-Nov-11 04:17N 48°44' W 005°30'1 1.9
2017-Nov-11 03:57N 48°44' W 005°29'1 2.1
2017-Nov-11 03:27N 48°44' W 005°27'2 3.4
2017-Nov-11 02:52N 48°43' W 005°30'1 1.8
2017-Nov-11 02:30N 48°43' W 005°29'1 1.7
2017-Nov-11 02:00N 48°43' W 005°28'1 1.6
2017-Nov-11 01:30N 48°43' W 005°27'1 1.5
2017-Nov-11 01:00N 48°43' W 005°26'1 1.3
2017-Nov-11 00:28N 48°44' W 005°25'0 1.0
2017-Nov-10 23:59N 48°44' W 005°24'0 0.8
2017-Nov-10 23:29N 48°44' W 005°24'0 0.5
2017-Nov-10 22:56N 48°44' W 005°23'0 0.5
2017-Nov-10 22:22N 48°44' W 005°23'0 0.8
2017-Nov-10 22:00N 48°44' W 005°22'0 0.9
2017-Nov-10 21:28N 48°44' W 005°22'1 1.1
2017-Nov-10 21:00N 48°44' W 005°23'4 1.9
2017-Nov-10 19:07N 48°46' W 005°27'0 1.5
2017-Nov-10 18:57N 48°46' W 005°27'1 1.6
2017-Nov-10 18:26N 48°45' W 005°26'1 1.5
2017-Nov-10 17:58N 48°44' W 005°26'1 1.4
2017-Nov-10 17:29N 48°44' W 005°25'1 1.5
2017-Nov-10 16:36N 48°43' W 005°27'0 3.0
2017-Nov-10 16:30N 48°43' W 005°27'1 2.9
2017-Nov-10 16:00N 48°42' W 005°26'3 2.8
2017-Nov-10 15:05N 48°41' W 005°30'0 3.9
2017-Nov-10 15:00N 48°41' W 005°31'2 3.6
2017-Nov-10 14:20N 48°42' W 005°34'1 2.6
2017-Nov-10 13:58N 48°42' W 005°35'1 2.3
2017-Nov-10 13:24N 48°42' W 005°34'1 1.9
2017-Nov-10 12:57N 48°41' W 005°32'2 2.0
2017-Nov-10 12:02N 48°41' W 005°30'0 1.7
2017-Nov-10 12:00N 48°41' W 005°29'1 1.5
2017-Nov-10 11:29N 48°41' W 005°28'1 1.4
2017-Nov-10 11:00N 48°41' W 005°27'8 7.3
2017-Nov-10 09:54N 48°46' W 005°17'2 5.2
2017-Nov-10 09:28N 48°48' W 005°19'1 1.5
2017-Nov-10 09:00N 48°47' W 005°18'1 1.5
2017-Nov-10 08:30N 48°47' W 005°17'0 0.5
2017-Nov-10 08:00N 48°47' W 005°16'2 3.1
2017-Nov-10 07:19N 48°49' W 005°19'1 1.7
2017-Nov-10 06:59N 48°48' W 005°19'1 1.9
2017-Nov-10 06:30N 48°47' W 005°18'1 1.6
2017-Nov-10 05:59N 48°47' W 005°17'0 0.6
2017-Nov-10 05:28N 48°46' W 005°17'2 3.2
2017-Nov-10 04:58N 48°47' W 005°20'2 2.9
2017-Nov-10 04:23N 48°47' W 005°22'2 4.6
2017-Nov-10 04:00N 48°46' W 005°25'4 8.0
2017-Nov-10 03:27N 48°44' W 005°30'4 3.9
2017-Nov-10 02:25N 48°41' W 005°35'0 0.7
2017-Nov-10 02:00N 48°41' W 005°34'0 0.4
2017-Nov-10 01:12N 48°41' W 005°34'1 1.4
2017-Nov-10 00:38N 48°41' W 005°33'1 1.6
2017-Nov-10 00:13N 48°41' W 005°32'0 1.6
2017-Nov-09 23:59N 48°41' W 005°31'1 2.3
2017-Nov-09 23:30N 48°41' W 005°30'1 2.3
2017-Nov-09 22:59N 48°42' W 005°28'1 1.8
2017-Nov-09 22:30N 48°42' W 005°27'12 5.3
2017-Nov-09 20:11N 48°50' W 005°13'1 1.3
2017-Nov-09 19:39N 48°50' W 005°13'0 1.4
2017-Nov-09 19:30N 48°49' W 005°13'1 1.3
2017-Nov-09 19:01N 48°49' W 005°13'1 1.4
2017-Nov-09 18:30N 48°48' W 005°13'4 2.7
2017-Nov-09 16:51N 48°47' W 005°20'1 2.4
2017-Nov-09 16:30N 48°47' W 005°21'1 2.4
2017-Nov-09 16:00N 48°46' W 005°23'3 6.7
2017-Nov-09 15:30N 48°44' W 005°27'7 3.0
2017-Nov-09 13:03N 48°40' W 005°36'1 3.0
2017-Nov-09 12:35N 48°41' W 005°34'1 2.9
2017-Nov-09 12:23N 48°41' W 005°34'1 2.9
2017-Nov-09 11:55N 48°42' W 005°32'1 2.7
2017-Nov-09 11:23N 48°43' W 005°30'1 2.4
2017-Nov-09 10:56N 48°43' W 005°29'1 1.9
2017-Nov-09 10:30N 48°44' W 005°28'10 6.0
2017-Nov-09 08:46N 48°50' W 005°15'1 4.6
2017-Nov-09 08:29N 48°49' W 005°16'2 3.3
2017-Nov-09 08:00N 48°47' W 005°16'0 0.4
2017-Nov-09 07:30N 48°47' W 005°16'0 0.8
2017-Nov-09 06:59N 48°47' W 005°16'2 3.8
2017-Nov-09 06:30N 48°45' W 005°15'1 2.5
2017-Nov-09 06:00N 48°46' W 005°17'2 4.0
2017-Nov-09 05:29N 48°48' W 005°19'0 0.4
2017-Nov-09 05:00N 48°47' W 005°19'2 3.7
2017-Nov-09 04:30N 48°46' W 005°17'1 1.3
2017-Nov-09 04:00N 48°46' W 005°16'2 2.1
2017-Nov-09 03:03N 48°47' W 005°18'0 4.5
2017-Nov-09 02:57N 48°47' W 005°18'3 5.7
2017-Nov-09 02:30N 48°44' W 005°18'4 7.1
2017-Nov-09 01:59N 48°41' W 005°19'3 6.6
2017-Nov-09 01:29N 48°38' W 005°20'3 6.2
2017-Nov-09 00:58N 48°34' W 005°22'3 6.0
2017-Nov-09 00:30N 48°32' W 005°23'3 5.8
2017-Nov-09 00:00N 48°29' W 005°24'4 6.1
2017-Nov-08 23:23N 48°25' W 005°22'3 6.0
2017-Nov-08 22:58N 48°23' W 005°21'3 6.2
2017-Nov-08 22:29N 48°20' W 005°19'3 6.2
2017-Nov-08 21:57N 48°17' W 005°17'3 6.4
2017-Nov-08 21:30N 48°14' W 005°16'4 7.4
2017-Nov-08 20:55N 48°10' W 005°14'3 7.8
2017-Nov-08 20:30N 48°07' W 005°13'4 7.5
2017-Nov-08 20:00N 48°03' W 005°11'4 7.8
2017-Nov-08 19:30N 48°01' W 005°06'4 7.8
2017-Nov-08 19:00N 47°60' W 005°01'4 8.0
2017-Nov-08 18:30N 47°58' W 004°56'4 8.1
2017-Nov-08 18:00N 47°56' W 004°50'4 8.4
2017-Nov-08 17:30N 47°54' W 004°45'4 8.5
2017-Nov-08 17:00N 47°52' W 004°39'4 8.6
2017-Nov-08 16:30N 47°50' W 004°34'4 8.5
2017-Nov-08 16:00N 47°48' W 004°28'5 8.2
2017-Nov-08 15:23N 47°46' W 004°21'3 7.8
2017-Nov-08 14:58N 47°48' W 004°17'  
Track history (hours):
 
Tides and Currents Weather Stations Pressure Air Temp Water Temp Dewpoint Dewpoint Depression Visibility Wind Speed Wind Dir Waves Ship Positions

F/V Judine

Last reported at 2017-Nov-16 10:06 UTC. Time now 2017-Nov-23 05:43 UTC.
Position N 47°48' W 004°17'.

Length 22 m.

Type: Fishing. MMSI: 227577000.

Date/timePositionNaut miles runAvg speedWind from/ knotsBaromVisibWave heightAir tempDewpointWater temp
2017-Nov-16 10:06N 47°48' W 004°17'0 0.0
2017-Nov-16 03:45N 47°48' W 004°17'0 0.0
2017-Nov-16 03:29N 47°48' W 004°17'0 0.0
2017-Nov-16 02:52N 47°48' W 004°17'0 0.0
2017-Nov-16 01:34N 47°48' W 004°17'0 0.2
2017-Nov-16 01:12N 47°48' W 004°17'0 0.1
2017-Nov-16 00:44N 47°48' W 004°17'0 0.0
2017-Nov-16 00:30N 47°48' W 004°17'0 0.0
2017-Nov-15 23:57N 47°48' W 004°17'0 0.0
2017-Nov-15 23:30N 47°48' W 004°17'0 0.3
2017-Nov-15 23:00N 47°48' W 004°17'1 3.0
2017-Nov-15 22:30N 47°47' W 004°18'4 7.7
2017-Nov-15 21:57N 47°47' W 004°25'4 8.4
2017-Nov-15 21:30N 47°48' W 004°30'3 5.9
2017-Nov-15 21:00N 47°49' W 004°34'3 5.9
2017-Nov-15 20:30N 47°51' W 004°38'4 8.1
2017-Nov-15 20:00N 47°53' W 004°43'4 8.1
2017-Nov-15 19:30N 47°55' W 004°48'4 8.0
2017-Nov-15 19:00N 47°57' W 004°53'4 8.9
2017-Nov-15 18:30N 47°59' W 004°59'5 9.0
2017-Nov-15 17:58N 48°01' W 005°06'4 9.0
2017-Nov-15 17:30N 48°03' W 005°11'5 9.5
2017-Nov-15 16:59N 48°08' W 005°14'4 8.9
2017-Nov-15 16:30N 48°12' W 005°16'5 9.2
2017-Nov-15 15:56N 48°17' W 005°19'4 8.9
2017-Nov-15 15:28N 48°21' W 005°20'4 8.6
2017-Nov-15 15:00N 48°25' W 005°22'5 8.2
2017-Nov-15 14:23N 48°29' W 005°25'7 7.9
2017-Nov-15 13:31N 48°36' W 005°28'6 7.6
2017-Nov-15 12:47N 48°41' W 005°31'1 1.2
2017-Nov-15 11:57N 48°42' W 005°32'1 2.6
2017-Nov-15 11:29N 48°40' W 005°32'2 2.6
2017-Nov-15 10:54N 48°39' W 005°33'1 2.6
2017-Nov-15 10:28N 48°38' W 005°33'2 2.5
2017-Nov-15 09:38N 48°36' W 005°33'1 2.5
2017-Nov-15 09:13N 48°35' W 005°33'0 2.0
2017-Nov-15 08:58N 48°34' W 005°34'1 1.9
2017-Nov-15 08:30N 48°34' W 005°34'1 1.0
2017-Nov-15 08:00N 48°34' W 005°34'2 4.3
2017-Nov-15 07:29N 48°32' W 005°36'11 1.7
2017-Nov-15 00:46N 48°42' W 005°28'3 4.5
2017-Nov-15 00:05N 48°41' W 005°32'2 0.9
2017-Nov-14 21:34N 48°41' W 005°29'5 2.4
2017-Nov-14 19:40N 48°39' W 005°34'3 2.7
2017-Nov-14 18:37N 48°40' W 005°30'1 1.1
2017-Nov-14 18:08N 48°40' W 005°30'0 1.1
2017-Nov-14 17:55N 48°40' W 005°30'1 0.9
2017-Nov-14 17:19N 48°41' W 005°29'0 0.8
2017-Nov-14 16:55N 48°41' W 005°29'8 8.2
2017-Nov-14 16:00N 48°46' W 005°20'1 2.1
2017-Nov-14 15:21N 48°45' W 005°22'1 2.4
2017-Nov-14 14:58N 48°44' W 005°23'2 2.5
2017-Nov-14 14:18N 48°43' W 005°25'1 2.6
2017-Nov-14 13:58N 48°43' W 005°26'1 2.5
2017-Nov-14 13:30N 48°42' W 005°28'1 2.6
2017-Nov-14 12:57N 48°41' W 005°29'2 2.7
2017-Nov-14 12:20N 48°40' W 005°31'2 5.0
2017-Nov-14 11:59N 48°42' W 005°33'1 2.5
2017-Nov-14 11:29N 48°41' W 005°34'2 2.6
2017-Nov-14 10:48N 48°39' W 005°34'1 2.8
2017-Nov-14 10:26N 48°38' W 005°34'1 2.6
2017-Nov-14 10:00N 48°37' W 005°34'2 2.5
2017-Nov-14 09:15N 48°35' W 005°35'1 2.4
2017-Nov-14 09:00N 48°34' W 005°35'2 2.4
2017-Nov-14 08:13N 48°32' W 005°35'21 4.0
2017-Nov-14 02:56N 48°49' W 005°15'2 1.4
2017-Nov-14 01:50N 48°50' W 005°13'0 0.2
2017-Nov-13 23:28N 48°50' W 005°12'4 2.2
2017-Nov-13 21:33N 48°49' W 005°06'16 0.8
2017-Nov-13 02:00N 48°43' W 005°28'1 3.0
2017-Nov-13 01:30N 48°44' W 005°29'1 1.4
2017-Nov-13 01:00N 48°44' W 005°29'2 2.7
2017-Nov-13 00:22N 48°42' W 005°29'1 2.6
2017-Nov-12 23:56N 48°41' W 005°29'1 1.8
2017-Nov-12 23:24N 48°40' W 005°29'1 1.5
2017-Nov-12 23:00N 48°39' W 005°29'1 1.7
2017-Nov-12 22:29N 48°38' W 005°30'1 2.6
2017-Nov-12 22:01N 48°37' W 005°31'3 3.4
2017-Nov-12 21:02N 48°35' W 005°34'1 3.3
2017-Nov-12 20:50N 48°34' W 005°34'7 2.8
2017-Nov-12 18:09N 48°42' W 005°35'3 2.2
2017-Nov-12 16:53N 48°43' W 005°32'1 2.4
2017-Nov-12 16:31N 48°44' W 005°31'3 2.4
2017-Nov-12 15:21N 48°45' W 005°27'1 2.5
2017-Nov-12 14:57N 48°46' W 005°26'3 1.7
2017-Nov-12 13:22N 48°43' W 005°28'4 8.4
2017-Nov-12 12:55N 48°41' W 005°32'9 5.4
2017-Nov-12 11:10N 48°46' W 005°20'4 4.9
2017-Nov-12 10:26N 48°48' W 005°15'2 2.2
2017-Nov-12 09:41N 48°47' W 005°17'1 2.4
2017-Nov-12 09:27N 48°46' W 005°18'1 2.3
2017-Nov-12 08:59N 48°46' W 005°19'1 2.3
2017-Nov-12 08:27N 48°45' W 005°20'1 2.4
2017-Nov-12 07:58N 48°44' W 005°22'1 2.4
2017-Nov-12 07:23N 48°44' W 005°24'1 2.4
2017-Nov-12 06:58N 48°43' W 005°25'1 2.3
2017-Nov-12 06:30N 48°42' W 005°26'2 3.6
2017-Nov-12 05:56N 48°42' W 005°29'0 0.5
2017-Nov-12 05:30N 48°42' W 005°29'1 2.3
2017-Nov-12 04:58N 48°42' W 005°28'1 2.2
2017-Nov-12 04:30N 48°42' W 005°26'1 2.1
2017-Nov-12 04:00N 48°42' W 005°24'1 1.2
2017-Nov-12 03:10N 48°42' W 005°26'0 1.2
2017-Nov-12 02:59N 48°42' W 005°26'1 1.8
2017-Nov-12 02:27N 48°41' W 005°24'1 2.0
2017-Nov-12 02:00N 48°41' W 005°23'0 0.4
2017-Nov-12 01:27N 48°41' W 005°23'1 2.8
2017-Nov-12 01:00N 48°42' W 005°24'1 2.1
2017-Nov-12 00:30N 48°41' W 005°23'1 2.3
2017-Nov-12 00:00N 48°41' W 005°22'1 2.3
2017-Nov-11 23:29N 48°40' W 005°21'1 1.6
2017-Nov-11 23:00N 48°39' W 005°20'2 4.3
2017-Nov-11 22:31N 48°40' W 005°22'1 1.9
2017-Nov-11 22:00N 48°41' W 005°24'1 1.9
2017-Nov-11 21:29N 48°40' W 005°24'1 2.1
2017-Nov-11 20:58N 48°39' W 005°24'1 2.2
2017-Nov-11 20:27N 48°37' W 005°24'3 5.6
2017-Nov-11 19:59N 48°36' W 005°27'3 5.4
2017-Nov-11 19:27N 48°34' W 005°30'3 5.2
2017-Nov-11 18:56N 48°33' W 005°34'9 4.6
2017-Nov-11 16:59N 48°42' W 005°34'1 2.3
2017-Nov-11 16:24N 48°40' W 005°35'0 0.9
2017-Nov-11 16:00N 48°41' W 005°35'1 2.3
2017-Nov-11 15:28N 48°41' W 005°34'1 2.4
2017-Nov-11 14:58N 48°42' W 005°32'2 2.4
2017-Nov-11 14:20N 48°43' W 005°30'2 2.3
2017-Nov-11 13:40N 48°44' W 005°28'1 2.4
2017-Nov-11 13:21N 48°44' W 005°27'2 2.4
2017-Nov-11 12:39N 48°45' W 005°25'1 2.3
2017-Nov-11 12:15N 48°46' W 005°24'0 1.0
2017-Nov-11 12:00N 48°46' W 005°24'4 0.9
2017-Nov-11 07:40N 48°48' W 005°19'0 2.4
2017-Nov-11 07:29N 48°47' W 005°19'1 2.3
2017-Nov-11 06:52N 48°46' W 005°21'1 2.5
2017-Nov-11 06:29N 48°46' W 005°22'1 2.5
2017-Nov-11 05:58N 48°45' W 005°24'1 2.4
2017-Nov-11 05:28N 48°44' W 005°25'1 2.1
2017-Nov-11 05:00N 48°44' W 005°27'2 2.9
2017-Nov-11 04:17N 48°44' W 005°30'1 1.9
2017-Nov-11 03:57N 48°44' W 005°29'1 2.1
2017-Nov-11 03:27N 48°44' W 005°27'2 3.4
2017-Nov-11 02:52N 48°43' W 005°30'1 1.8
2017-Nov-11 02:30N 48°43' W 005°29'1 1.7
2017-Nov-11 02:00N 48°43' W 005°28'1 1.6
2017-Nov-11 01:30N 48°43' W 005°27'1 1.5
2017-Nov-11 01:00N 48°43' W 005°26'1 1.3
2017-Nov-11 00:28N 48°44' W 005°25'0 1.0
2017-Nov-10 23:59N 48°44' W 005°24'0 0.8
2017-Nov-10 23:29N 48°44' W 005°24'0 0.5
2017-Nov-10 22:56N 48°44' W 005°23'0 0.5
2017-Nov-10 22:22N 48°44' W 005°23'0 0.8
2017-Nov-10 22:00N 48°44' W 005°22'0 0.9
2017-Nov-10 21:28N 48°44' W 005°22'1 1.1
2017-Nov-10 21:00N 48°44' W 005°23'4 1.9
2017-Nov-10 19:07N 48°46' W 005°27'0 1.5
2017-Nov-10 18:57N 48°46' W 005°27'1 1.6
2017-Nov-10 18:26N 48°45' W 005°26'1 1.5
2017-Nov-10 17:58N 48°44' W 005°26'1 1.4
2017-Nov-10 17:29N 48°44' W 005°25'1 1.5
2017-Nov-10 16:36N 48°43' W 005°27'0 3.0
2017-Nov-10 16:30N 48°43' W 005°27'1 2.9
2017-Nov-10 16:00N 48°42' W 005°26'3 2.8
2017-Nov-10 15:05N 48°41' W 005°30'0 3.9
2017-Nov-10 15:00N 48°41' W 005°31'2 3.6
2017-Nov-10 14:20N 48°42' W 005°34'1 2.6
2017-Nov-10 13:58N 48°42' W 005°35'1 2.3
2017-Nov-10 13:24N 48°42' W 005°34'1 1.9
2017-Nov-10 12:57N 48°41' W 005°32'2 2.0
2017-Nov-10 12:02N 48°41' W 005°30'0 1.7
2017-Nov-10 12:00N 48°41' W 005°29'1 1.5
2017-Nov-10 11:29N 48°41' W 005°28'1 1.4
2017-Nov-10 11:00N 48°41' W 005°27'8 7.3
2017-Nov-10 09:54N 48°46' W 005°17'2 5.2
2017-Nov-10 09:28N 48°48' W 005°19'1 1.5
2017-Nov-10 09:00N 48°47' W 005°18'1 1.5
2017-Nov-10 08:30N 48°47' W 005°17'0 0.5
2017-Nov-10 08:00N 48°47' W 005°16'2 3.1
2017-Nov-10 07:19N 48°49' W 005°19'1 1.7
2017-Nov-10 06:59N 48°48' W 005°19'1 1.9
2017-Nov-10 06:30N 48°47' W 005°18'1 1.6
2017-Nov-10 05:59N 48°47' W 005°17'0 0.6
2017-Nov-10 05:28N 48°46' W 005°17'2 3.2
2017-Nov-10 04:58N 48°47' W 005°20'2 2.9
2017-Nov-10 04:23N 48°47' W 005°22'2 4.6
2017-Nov-10 04:00N 48°46' W 005°25'4 8.0
2017-Nov-10 03:27N 48°44' W 005°30'4 3.9
2017-Nov-10 02:25N 48°41' W 005°35'0 0.7
2017-Nov-10 02:00N 48°41' W 005°34'0 0.4
2017-Nov-10 01:12N 48°41' W 005°34'1 1.4
2017-Nov-10 00:38N 48°41' W 005°33'1 1.6
2017-Nov-10 00:13N 48°41' W 005°32'0 1.6
2017-Nov-09 23:59N 48°41' W 005°31'1 2.3
2017-Nov-09 23:30N 48°41' W 005°30'1 2.3
2017-Nov-09 22:59N 48°42' W 005°28'1 1.8
2017-Nov-09 22:30N 48°42' W 005°27'12 5.3
2017-Nov-09 20:11N 48°50' W 005°13'1 1.3
2017-Nov-09 19:39N 48°50' W 005°13'0 1.4
2017-Nov-09 19:30N 48°49' W 005°13'1 1.3
2017-Nov-09 19:01N 48°49' W 005°13'1 1.4
2017-Nov-09 18:30N 48°48' W 005°13'4 2.7
2017-Nov-09 16:51N 48°47' W 005°20'1 2.4
2017-Nov-09 16:30N 48°47' W 005°21'1 2.4
2017-Nov-09 16:00N 48°46' W 005°23'3 6.7
2017-Nov-09 15:30N 48°44' W 005°27'7 3.0
2017-Nov-09 13:03N 48°40' W 005°36'1 3.0
2017-Nov-09 12:35N 48°41' W 005°34'1 2.9
2017-Nov-09 12:23N 48°41' W 005°34'1 2.9
2017-Nov-09 11:55N 48°42' W 005°32'1 2.7
2017-Nov-09 11:23N 48°43' W 005°30'1 2.4
2017-Nov-09 10:56N 48°43' W 005°29'1 1.9
2017-Nov-09 10:30N 48°44' W 005°28'10 6.0
2017-Nov-09 08:46N 48°50' W 005°15'1 4.6
2017-Nov-09 08:29N 48°49' W 005°16'2 3.3
2017-Nov-09 08:00N 48°47' W 005°16'0 0.4
2017-Nov-09 07:30N 48°47' W 005°16'0 0.8
2017-Nov-09 06:59N 48°47' W 005°16'2 3.8
2017-Nov-09 06:30N 48°45' W 005°15'1 2.5
2017-Nov-09 06:00N 48°46' W 005°17'2 4.0
2017-Nov-09 05:29N 48°48' W 005°19'0 0.4
2017-Nov-09 05:00N 48°47' W 005°19'2 3.7
2017-Nov-09 04:30N 48°46' W 005°17'1 1.3
2017-Nov-09 04:00N 48°46' W 005°16'2 2.1
2017-Nov-09 03:03N 48°47' W 005°18'0 4.5
2017-Nov-09 02:57N 48°47' W 005°18'3 5.7
2017-Nov-09 02:30N 48°44' W 005°18'4 7.1
2017-Nov-09 01:59N 48°41' W 005°19'3 6.6
2017-Nov-09 01:29N 48°38' W 005°20'3 6.2
2017-Nov-09 00:58N 48°34' W 005°22'3 6.0
2017-Nov-09 00:30N 48°32' W 005°23'3 5.8
2017-Nov-09 00:00N 48°29' W 005°24'4 6.1
2017-Nov-08 23:23N 48°25' W 005°22'3 6.0
2017-Nov-08 22:58N 48°23' W 005°21'3 6.2
2017-Nov-08 22:29N 48°20' W 005°19'3 6.2
2017-Nov-08 21:57N 48°17' W 005°17'3 6.4
2017-Nov-08 21:30N 48°14' W 005°16'4 7.4
2017-Nov-08 20:55N 48°10' W 005°14'3 7.8
2017-Nov-08 20:30N 48°07' W 005°13'4 7.5
2017-Nov-08 20:00N 48°03' W 005°11'4 7.8
2017-Nov-08 19:30N 48°01' W 005°06'4 7.8
2017-Nov-08 19:00N 47°60' W 005°01'4 8.0
2017-Nov-08 18:30N 47°58' W 004°56'4 8.1
2017-Nov-08 18:00N 47°56' W 004°50'4 8.4
2017-Nov-08 17:30N 47°54' W 004°45'4 8.5
2017-Nov-08 17:00N 47°52' W 004°39'4 8.6
2017-Nov-08 16:30N 47°50' W 004°34'4 8.5
2017-Nov-08 16:00N 47°48' W 004°28'5 8.2
2017-Nov-08 15:23N 47°46' W 004°21'3 7.8
2017-Nov-08 14:58N 47°48' W 004°17'  

Dump ship's entire track history